sensor_id;sensor_type;location;lat;lon;timestamp;pressure;altitude;pressure_sealevel;temperature;humidity
68508;BME280;55510;49.560;19.090;2023-05-07T13:39:45;97046.31;;;6.72;100.00
68508;BME280;55510;49.560;19.090;2023-05-07T13:42:46;97046.94;;;6.74;100.00
68508;BME280;55510;49.560;19.090;2023-05-07T13:45:46;97043.88;;;6.77;100.00
68508;BME280;55510;49.560;19.090;2023-05-07T13:48:47;97039.00;;;6.67;100.00
68508;BME280;55510;49.560;19.090;2023-05-07T13:51:48;97040.22;;;6.72;100.00
68508;BME280;55510;49.560;19.090;2023-05-07T13:54:49;97046.31;;;6.72;100.00
68508;BME280;55510;49.560;19.090;2023-05-07T13:57:57;97042.66;;;6.73;100.00
68508;BME280;55510;49.560;19.090;2023-05-07T14:00:58;97039.81;;;6.81;100.00
68508;BME280;55510;49.560;19.090;2023-05-07T14:03:59;97043.28;;;6.75;100.00
68508;BME280;55510;49.560;19.090;2023-05-07T14:07:02;97039.00;;;6.74;100.00
68508;BME280;55510;49.560;19.090;2023-05-07T14:10:02;97046.31;;;6.72;100.00
68508;BME280;55510;49.560;19.090;2023-05-07T14:13:03;97050.00;;;6.71;100.00
68508;BME280;55510;49.560;19.090;2023-05-07T14:16:04;97056.28;;;6.63;100.00
68508;BME280;55510;49.560;19.090;2023-05-07T14:19:05;97049.53;;;6.47;100.00
68508;BME280;55510;49.560;19.090;2023-05-07T14:22:06;97061.34;;;6.51;100.00
68508;BME280;55510;49.560;19.090;2023-05-07T14:25:07;97056.66;;;6.53;100.00
68508;BME280;55510;49.560;19.090;2023-05-07T14:28:09;97071.53;;;6.48;100.00
68508;BME280;55510;49.560;19.090;2023-05-07T14:31:10;97074.34;;;6.46;100.00
68508;BME280;55510;49.560;19.090;2023-05-07T14:34:10;97079.59;;;6.39;100.00
68508;BME280;55510;49.560;19.090;2023-05-07T14:37:11;97088.91;;;6.22;100.00
68508;BME280;55510;49.560;19.090;2023-05-07T14:40:12;97089.34;;;6.26;100.00
68508;BME280;55510;49.560;19.090;2023-05-07T14:43:13;97086.94;;;6.31;100.00
68508;BME280;55510;49.560;19.090;2023-05-07T14:46:18;97084.91;;;6.39;100.00
68508;BME280;55510;49.560;19.090;2023-05-07T14:49:19;97078.38;;;6.29;100.00
68508;BME280;55510;49.560;19.090;2023-05-07T14:52:20;97086.50;;;6.20;100.00
68508;BME280;55510;49.560;19.090;2023-05-07T14:55:21;97087.28;;;6.21;100.00
68508;BME280;55510;49.560;19.090;2023-05-07T14:58:21;97095.66;;;6.24;100.00
68508;BME280;55510;49.560;19.090;2023-05-07T15:01:22;97091.09;;;6.05;100.00
68508;BME280;55510;49.560;19.090;2023-05-07T15:04:23;97100.59;;;5.99;100.00
68508;BME280;55510;49.560;19.090;2023-05-07T15:07:24;97090.97;;;5.85;100.00
68508;BME280;55510;49.560;19.090;2023-05-07T15:10:25;97092.75;;;5.77;100.00
68508;BME280;55510;49.560;19.090;2023-05-07T15:13:26;97097.53;;;5.60;100.00
68508;BME280;55510;49.560;19.090;2023-05-07T15:16:26;97096.91;;;5.58;100.00
68508;BME280;55510;49.560;19.090;2023-05-07T15:19:27;97101.97;;;5.53;100.00
68508;BME280;55510;49.560;19.090;2023-05-07T15:22:29;97096.06;;;5.51;100.00
68508;BME280;55510;49.560;19.090;2023-05-07T15:25:30;97103.97;;;5.51;100.00
68508;BME280;55510;49.560;19.090;2023-05-07T15:28:33;97105.44;;;5.54;100.00
68508;BME280;55510;49.560;19.090;2023-05-07T15:31:34;97109.88;;;5.53;100.00
68508;BME280;55510;49.560;19.090;2023-05-07T15:34:34;97112.09;;;5.49;100.00
68508;BME280;55510;49.560;19.090;2023-05-07T15:37:35;97110.44;;;5.42;100.00
68508;BME280;55510;49.560;19.090;2023-05-07T15:40:36;97111.22;;;5.42;100.00
68508;BME280;55510;49.560;19.090;2023-05-07T15:43:48;97116.72;;;5.41;100.00
68508;BME280;55510;49.560;19.090;2023-05-07T15:46:49;97119.75;;;5.37;100.00
68508;BME280;55510;49.560;19.090;2023-05-07T15:49:50;97128.66;;;5.36;100.00
68508;BME280;55510;49.560;19.090;2023-05-07T15:52:50;97124.78;;;5.32;100.00
68508;BME280;55510;49.560;19.090;2023-05-07T15:55:51;97126.81;;;5.30;100.00
68508;BME280;55510;49.560;19.090;2023-05-07T15:58:52;97128.94;;;5.20;100.00
68508;BME280;55510;49.560;19.090;2023-05-07T16:01:53;97125.03;;;5.16;100.00
68508;BME280;55510;49.560;19.090;2023-05-07T16:04:54;97128.50;;;5.16;100.00
68508;BME280;55510;49.560;19.090;2023-05-07T16:07:55;97124.66;;;5.19;100.00
68508;BME280;55510;49.560;19.090;2023-05-07T16:10:57;97135.81;;;5.14;100.00
68508;BME280;55510;49.560;19.090;2023-05-07T16:13:58;97134.09;;;5.06;100.00
68508;BME280;55510;49.560;19.090;2023-05-07T16:17:00;97137.38;;;5.08;100.00
68508;BME280;55510;49.560;19.090;2023-05-07T16:20:02;97139.38;;;5.06;100.00
68508;BME280;55510;49.560;19.090;2023-05-07T16:23:05;97134.28;;;5.05;100.00
68508;BME280;55510;49.560;19.090;2023-05-07T16:26:06;97124.25;;;4.93;100.00
68508;BME280;55510;49.560;19.090;2023-05-07T16:29:07;97127.47;;;4.89;100.00
68508;BME280;55510;49.560;19.090;2023-05-07T16:32:11;97118.94;;;4.87;100.00
68508;BME280;55510;49.560;19.090;2023-05-07T16:35:11;97127.00;;;4.85;100.00
68508;BME280;55510;49.560;19.090;2023-05-07T16:38:12;97119.91;;;4.86;100.00
68508;BME280;55510;49.560;19.090;2023-05-07T16:41:13;97118.41;;;4.76;100.00
68508;BME280;55510;49.560;19.090;2023-05-07T16:44:14;97123.50;;;4.78;100.00
68508;BME280;55510;49.560;19.090;2023-05-07T16:47:14;97123.91;;;4.82;100.00
68508;BME280;55510;49.560;19.090;2023-05-07T16:50:15;97129.78;;;4.77;100.00
68508;BME280;55510;49.560;19.090;2023-05-07T16:53:16;97137.59;;;4.70;100.00
68508;BME280;55510;49.560;19.090;2023-05-07T16:56:17;97146.53;;;4.69;100.00
68508;BME280;55510;49.560;19.090;2023-05-07T16:59:17;97131.47;;;4.63;100.00
68508;BME280;55510;49.560;19.090;2023-05-07T17:02:18;97136.47;;;4.58;100.00
68508;BME280;55510;49.560;19.090;2023-05-07T17:05:19;97132.59;;;4.54;100.00
68508;BME280;55510;49.560;19.090;2023-05-07T17:08:20;97139.22;;;4.49;100.00
68508;BME280;55510;49.560;19.090;2023-05-07T17:11:20;97138.84;;;4.53;100.00
68508;BME280;55510;49.560;19.090;2023-05-07T17:14:22;97142.03;;;4.48;100.00
68508;BME280;55510;49.560;19.090;2023-05-07T17:17:22;97147.88;;;4.43;100.00
68508;BME280;55510;49.560;19.090;2023-05-07T17:20:23;97147.50;;;4.46;100.00
68508;BME280;55510;49.560;19.090;2023-05-07T17:23:24;97155.78;;;4.43;100.00
68508;BME280;55510;49.560;19.090;2023-05-07T17:26:25;97162.25;;;4.41;100.00
68508;BME280;55510;49.560;19.090;2023-05-07T17:29:28;97160.97;;;4.37;100.00
68508;BME280;55510;49.560;19.090;2023-05-07T17:32:29;97158.78;;;4.40;100.00
68508;BME280;55510;49.560;19.090;2023-05-07T17:35:32;97167.69;;;4.39;100.00
68508;BME280;55510;49.560;19.090;2023-05-07T17:38:33;97169.06;;;4.35;100.00
68508;BME280;55510;49.560;19.090;2023-05-07T17:41:35;97176.31;;;4.33;100.00
68508;BME280;55510;49.560;19.090;2023-05-07T17:44:36;97176.41;;;4.40;100.00
68508;BME280;55510;49.560;19.090;2023-05-07T17:47:36;97183.31;;;4.41;100.00
68508;BME280;55510;49.560;19.090;2023-05-07T17:50:37;97177.50;;;4.45;100.00
68508;BME280;55510;49.560;19.090;2023-05-07T17:53:38;97187.41;;;4.43;100.00
68508;BME280;55510;49.560;19.090;2023-05-07T17:56:40;97167.69;;;4.39;100.00
68508;BME280;55510;49.560;19.090;2023-05-07T17:59:41;97175.78;;;4.38;100.00
68508;BME280;55510;49.560;19.090;2023-05-07T18:02:41;97170.31;;;4.39;100.00
68508;BME280;55510;49.560;19.090;2023-05-07T18:05:42;97169.88;;;4.35;100.00
68508;BME280;55510;49.560;19.090;2023-05-07T18:08:44;97175.53;;;4.32;100.00
68508;BME280;55510;49.560;19.090;2023-05-07T18:11:44;97183.22;;;4.34;100.00
68508;BME280;55510;49.560;19.090;2023-05-07T18:14:45;97179.59;;;4.35;100.00
68508;BME280;55510;49.560;19.090;2023-05-07T18:17:47;97176.31;;;4.33;100.00
68508;BME280;55510;49.560;19.090;2023-05-07T18:20:48;97173.69;;;4.33;100.00
68508;BME280;55510;49.560;19.090;2023-05-07T18:23:50;97174.06;;;4.30;100.00
68508;BME280;55510;49.560;19.090;2023-05-07T18:26:51;97174.25;;;4.28;100.00
68508;BME280;55510;49.560;19.090;2023-05-07T18:29:51;97177.69;;;4.29;100.00
68508;BME280;55510;49.560;19.090;2023-05-07T18:32:52;97179.97;;;4.32;100.00
68508;BME280;55510;49.560;19.090;2023-05-07T18:35:53;97177.06;;;4.27;100.00
68508;BME280;55510;49.560;19.090;2023-05-07T18:38:54;97175.63;;;4.24;100.00
68508;BME280;55510;49.560;19.090;2023-05-07T18:41:55;97174.25;;;4.28;100.00
68508;BME280;55510;49.560;19.090;2023-05-07T18:44:57;97181.06;;;4.23;100.00
68508;BME280;55510;49.560;19.090;2023-05-07T18:47:58;97186.81;;;4.26;100.00
68508;BME280;55510;49.560;19.090;2023-05-07T18:50:58;97191.88;;;4.28;100.00
68508;BME280;55510;49.560;19.090;2023-05-07T18:54:00;97189.59;;;4.25;100.00
68508;BME280;55510;49.560;19.090;2023-05-07T18:57:01;97196.50;;;4.26;100.00
68508;BME280;55510;49.560;19.090;2023-05-07T19:00:02;97199.78;;;4.28;100.00
68508;BME280;55510;49.560;19.090;2023-05-07T19:03:06;97205.41;;;4.25;100.00
68508;BME280;55510;49.560;19.090;2023-05-07T19:06:06;97206.69;;;4.29;100.00
68508;BME280;55510;49.560;19.090;2023-05-07T19:09:07;97217.59;;;4.26;100.00
68508;BME280;55510;49.560;19.090;2023-05-07T19:12:11;97221.22;;;4.25;100.00
68508;BME280;55510;49.560;19.090;2023-05-07T19:15:12;97216.22;;;4.30;100.00
68508;BME280;55510;49.560;19.090;2023-05-07T19:18:12;97214.31;;;4.24;100.00
68508;BME280;55510;49.560;19.090;2023-05-07T19:21:13;97218.78;;;4.23;100.00
68508;BME280;55510;49.560;19.090;2023-05-07T19:24:15;97226.84;;;4.21;100.00
68508;BME280;55510;49.560;19.090;2023-05-07T19:27:16;97229.13;;;4.25;100.00
68508;BME280;55510;49.560;19.090;2023-05-07T19:30:17;97230.13;;;4.24;100.00
68508;BME280;55510;49.560;19.090;2023-05-07T19:33:18;97235.41;;;4.24;100.00
68508;BME280;55510;49.560;19.090;2023-05-07T19:36:19;97231.75;;;4.25;100.00
68508;BME280;55510;49.560;19.090;2023-05-07T19:39:20;97235.03;;;4.27;100.00
68508;BME280;55510;49.560;19.090;2023-05-07T19:42:20;97235.66;;;4.29;100.00
68508;BME280;55510;49.560;19.090;2023-05-07T19:45:21;97239.94;;;4.30;100.00
68508;BME280;55510;49.560;19.090;2023-05-07T19:48:22;97239.13;;;4.29;100.00
68508;BME280;55510;49.560;19.090;2023-05-07T19:51:23;97238.22;;;4.22;100.00
68508;BME280;55510;49.560;19.090;2023-05-07T19:54:23;97242.66;;;4.21;100.00
68508;BME280;55510;49.560;19.090;2023-05-07T19:57:24;97250.41;;;4.23;100.00
68508;BME280;55510;49.560;19.090;2023-05-07T20:00:25;97247.41;;;4.11;100.00
68508;BME280;55510;49.560;19.090;2023-05-07T20:03:28;97236.84;;;4.11;100.00
68508;BME280;55510;49.560;19.090;2023-05-07T20:06:29;97239.22;;;4.06;100.00
68508;BME280;55510;49.560;19.090;2023-05-07T20:09:30;97245.38;;;3.98;100.00
68508;BME280;55510;49.560;19.090;2023-05-07T20:12:31;97247.53;;;3.95;100.00
68508;BME280;55510;49.560;19.090;2023-05-07T20:15:34;97249.09;;;3.89;100.00
68508;BME280;55510;49.560;19.090;2023-05-07T20:18:35;97236.56;;;3.91;100.00
68508;BME280;55510;49.560;19.090;2023-05-07T20:21:36;97245.91;;;3.94;100.00
68508;BME280;55510;49.560;19.090;2023-05-07T20:24:37;97243.09;;;3.95;100.00
68508;BME280;55510;49.560;19.090;2023-05-07T20:27:40;97243.00;;;3.88;100.00
68508;BME280;55510;49.560;19.090;2023-05-07T20:30:41;97247.34;;;3.81;100.00
68508;BME280;55510;49.560;19.090;2023-05-07T20:33:42;97251.34;;;3.77;100.00
68508;BME280;55510;49.560;19.090;2023-05-07T20:36:42;97253.97;;;3.77;100.00
68508;BME280;55510;49.560;19.090;2023-05-07T20:39:43;97250.97;;;3.80;100.00
68508;BME280;55510;49.560;19.090;2023-05-07T20:42:44;97250.34;;;3.78;100.00
68508;BME280;55510;49.560;19.090;2023-05-07T20:45:45;97259.06;;;3.79;100.00
68508;BME280;55510;49.560;19.090;2023-05-07T20:48:45;97260.50;;;3.81;100.00
68508;BME280;55510;49.560;19.090;2023-05-07T20:51:46;97259.59;;;3.74;100.00
68508;BME280;55510;49.560;19.090;2023-05-07T20:54:46;97265.13;;;3.79;100.00
68508;BME280;55510;49.560;19.090;2023-05-07T20:57:49;97266.34;;;3.76;100.00
68508;BME280;55510;49.560;19.090;2023-05-07T21:00:51;97254.97;;;3.76;100.00
68508;BME280;55510;49.560;19.090;2023-05-07T21:03:52;97254.50;;;3.72;100.00
68508;BME280;55510;49.560;19.090;2023-05-07T21:06:53;97258.13;;;3.71;100.00
68508;BME280;55510;49.560;19.090;2023-05-07T21:09:54;97263.22;;;3.73;100.00
68508;BME280;55510;49.560;19.090;2023-05-07T21:12:54;97262.59;;;3.71;100.00
68508;BME280;55510;49.560;19.090;2023-05-07T21:15:55;97265.38;;;3.69;100.00
68508;BME280;55510;49.560;19.090;2023-05-07T21:18:55;97268.84;;;3.70;100.00
68508;BME280;55510;49.560;19.090;2023-05-07T21:21:56;97269.84;;;3.69;100.00
68508;BME280;55510;49.560;19.090;2023-05-07T21:24:58;97259.31;;;3.69;100.00
68508;BME280;55510;49.560;19.090;2023-05-07T21:28:03;97268.56;;;3.65;100.00
68508;BME280;55510;49.560;19.090;2023-05-07T21:31:04;97271.63;;;3.68;100.00
68508;BME280;55510;49.560;19.090;2023-05-07T21:34:05;97273.81;;;3.65;100.00
68508;BME280;55510;49.560;19.090;2023-05-07T21:37:07;97270.00;;;3.67;100.00
68508;BME280;55510;49.560;19.090;2023-05-07T21:40:09;97273.00;;;3.64;100.00
68508;BME280;55510;49.560;19.090;2023-05-07T21:43:10;97273.81;;;3.65;100.00
68508;BME280;55510;49.560;19.090;2023-05-07T21:46:11;97271.84;;;3.67;100.00
68508;BME280;55510;49.560;19.090;2023-05-07T21:49:11;97275.28;;;3.67;100.00
68508;BME280;55510;49.560;19.090;2023-05-07T21:52:13;97273.47;;;3.68;100.00
68508;BME280;55510;49.560;19.090;2023-05-07T21:55:16;97281.53;;;3.66;100.00
68508;BME280;55510;49.560;19.090;2023-05-07T21:58:17;97279.91;;;3.65;100.00
68508;BME280;55510;49.560;19.090;2023-05-07T22:01:17;97283.34;;;3.66;100.00
68508;BME280;55510;49.560;19.090;2023-05-07T22:04:18;97276.25;;;3.66;100.00
68508;BME280;55510;49.560;19.090;2023-05-07T22:07:20;97284.34;;;3.65;100.00
68508;BME280;55510;49.560;19.090;2023-05-07T22:10:21;97289.63;;;3.65;100.00
68508;BME280;55510;49.560;19.090;2023-05-07T22:13:21;97284.72;;;3.61;100.00
68508;BME280;55510;49.560;19.090;2023-05-07T22:16:22;97283.06;;;3.60;100.00
68508;BME280;55510;49.560;19.090;2023-05-07T22:19:23;97289.50;;;3.58;100.00
68508;BME280;55510;49.560;19.090;2023-05-07T22:22:24;97294.13;;;3.56;100.00
68508;BME280;55510;49.560;19.090;2023-05-07T22:25:24;97295.75;;;3.57;100.00
68508;BME280;55510;49.560;19.090;2023-05-07T22:28:26;97287.69;;;3.58;100.00
68508;BME280;55510;49.560;19.090;2023-05-07T22:31:26;97283.72;;;3.62;100.00
68508;BME280;55510;49.560;19.090;2023-05-07T22:34:27;97288.22;;;3.54;100.00
68508;BME280;55510;49.560;19.090;2023-05-07T22:37:28;97280.16;;;3.55;100.00
68508;BME280;55510;49.560;19.090;2023-05-07T22:40:29;97270.63;;;3.54;100.00
68508;BME280;55510;49.560;19.090;2023-05-07T22:43:29;97276.19;;;3.59;100.00
68508;BME280;55510;49.560;19.090;2023-05-07T22:46:30;97271.72;;;3.60;100.00
68508;BME280;55510;49.560;19.090;2023-05-07T22:49:33;97273.25;;;3.54;100.00
68508;BME280;55510;49.560;19.090;2023-05-07T22:52:34;97270.44;;;3.56;100.00
68508;BME280;55510;49.560;19.090;2023-05-07T22:55:35;97278.63;;;3.61;100.00
68508;BME280;55510;49.560;19.090;2023-05-07T22:58:35;97267.28;;;3.60;100.00
68508;BME280;55510;49.560;19.090;2023-05-07T23:01:36;97276.19;;;3.59;100.00
68508;BME280;55510;49.560;19.090;2023-05-07T23:04:37;97268.44;;;3.58;100.00
68508;BME280;55510;49.560;19.090;2023-05-07T23:07:37;97263.88;;;3.52;100.00
68508;BME280;55510;49.560;19.090;2023-05-07T23:10:38;97268.31;;;3.51;100.00
68508;BME280;55510;49.560;19.090;2023-05-07T23:13:39;97268.31;;;3.51;100.00
68508;BME280;55510;49.560;19.090;2023-05-07T23:16:39;97266.31;;;3.53;100.00
68508;BME280;55510;49.560;19.090;2023-05-07T23:19:40;97265.69;;;3.51;100.00
68508;BME280;55510;49.560;19.090;2023-05-07T23:22:41;97274.56;;;3.50;100.00
68508;BME280;55510;49.560;19.090;2023-05-07T23:25:42;97264.75;;;3.44;100.00
68508;BME280;55510;49.560;19.090;2023-05-07T23:28:42;97261.78;;;3.47;100.00
68508;BME280;55510;49.560;19.090;2023-05-07T23:31:43;97259.44;;;3.52;100.00
68508;BME280;55510;49.560;19.090;2023-05-07T23:34:48;97253.34;;;3.52;100.00
68508;BME280;55510;49.560;19.090;2023-05-07T23:37:49;97255.00;;;3.53;100.00
68508;BME280;55510;49.560;19.090;2023-05-07T23:40:52;97254.63;;;3.56;100.00
68508;BME280;55510;49.560;19.090;2023-05-07T23:43:52;97258.09;;;3.56;100.00
68508;BME280;55510;49.560;19.090;2023-05-07T23:46:53;97250.22;;;3.56;100.00
68508;BME280;55510;49.560;19.090;2023-05-07T23:49:54;97255.47;;;3.56;100.00
68508;BME280;55510;49.560;19.090;2023-05-07T23:52:54;97257.09;;;3.57;100.00
68508;BME280;55510;49.560;19.090;2023-05-07T23:55:55;97247.91;;;3.53;100.00
68508;BME280;55510;49.560;19.090;2023-05-07T23:58:56;97249.38;;;3.56;100.00
